Terminal Aerodrome Forecast
Issued by NWS

Home | Current Version | Previous Version | Text Only | Print | Product List | Glossary On
Versions: 1 2 3 4 5 6 7 8 9 10 11 12 13 14 15
000
FTUS44 KJAN 020500
TAFHKS
TAF
KHKS 020538Z 0206/0306 VRB04KT 4SM -RA BR OVC006
     FM020800 VRB04KT 2SM BR OVC003
     FM021000 01003KT 1SM -DZ BR OVC003
     FM021600 36006KT 2SM BR OVC007
     FM021800 02004KT 4SM BR OVC007
     FM030000 11003KT 2SM BR OVC003=

USA.gov is the U.S. government's official web portal to all federal, state and local government web resources and services.